sensor_id;sensor_type;location;lat;lon;timestamp;pressure;altitude;pressure_sealevel;temperature;humidity
64683;BME280;51107;47.652;19.016;2024-01-06T00:01:19;99014.75;;;3.62;100.00
64683;BME280;51107;47.652;19.016;2024-01-06T00:03:48;99018.28;;;3.61;100.00
64683;BME280;51107;47.652;19.016;2024-01-06T00:06:16;99022.09;;;3.66;100.00
64683;BME280;51107;47.652;19.016;2024-01-06T00:08:44;99020.38;;;3.67;100.00
64683;BME280;51107;47.652;19.016;2024-01-06T00:11:12;99016.56;;;3.50;100.00
64683;BME280;51107;47.652;19.016;2024-01-06T00:13:40;99016.00;;;3.46;100.00
64683;BME280;51107;47.652;19.016;2024-01-06T00:16:08;99012.50;;;3.47;100.00
64683;BME280;51107;47.652;19.016;2024-01-06T00:18:37;99006.91;;;3.63;100.00
64683;BME280;51107;47.652;19.016;2024-01-06T00:21:05;99011.00;;;3.66;100.00
64683;BME280;51107;47.652;19.016;2024-01-06T00:23:33;98993.03;;;3.54;100.00
64683;BME280;51107;47.652;19.016;2024-01-06T00:26:01;98994.63;;;3.34;100.00
64683;BME280;51107;47.652;19.016;2024-01-06T00:28:30;98993.25;;;3.30;100.00
64683;BME280;51107;47.652;19.016;2024-01-06T00:30:58;99000.22;;;3.18;100.00
64683;BME280;51107;47.652;19.016;2024-01-06T00:33:26;98997.25;;;3.23;100.00
64683;BME280;51107;47.652;19.016;2024-01-06T00:35:54;99001.34;;;3.26;100.00
64683;BME280;51107;47.652;19.016;2024-01-06T00:38:23;98993.03;;;3.22;100.00
64683;BME280;51107;47.652;19.016;2024-01-06T00:40:51;98982.81;;;3.32;100.00
64683;BME280;51107;47.652;19.016;2024-01-06T00:43:19;98993.13;;;3.32;100.00
64683;BME280;51107;47.652;19.016;2024-01-06T00:45:47;98995.81;;;3.30;100.00
64683;BME280;51107;47.652;19.016;2024-01-06T00:48:16;98981.06;;;3.32;100.00
64683;BME280;51107;47.652;19.016;2024-01-06T00:50:44;98980.69;;;3.37;100.00
64683;BME280;51107;47.652;19.016;2024-01-06T00:53:12;98992.63;;;3.38;100.00
64683;BME280;51107;47.652;19.016;2024-01-06T00:55:41;98993.44;;;3.38;100.00
64683;BME280;51107;47.652;19.016;2024-01-06T00:58:09;98986.22;;;3.32;100.00
64683;BME280;51107;47.652;19.016;2024-01-06T01:00:39;98978.84;;;3.28;100.00
64683;BME280;51107;47.652;19.016;2024-01-06T01:03:08;98985.59;;;3.40;100.00
64683;BME280;51107;47.652;19.016;2024-01-06T01:05:36;98977.88;;;3.40;100.00
64683;BME280;51107;47.652;19.016;2024-01-06T01:08:05;98993.56;;;3.37;100.00
64683;BME280;51107;47.652;19.016;2024-01-06T01:10:33;98982.00;;;3.31;100.00
64683;BME280;51107;47.652;19.016;2024-01-06T01:13:01;98982.69;;;3.33;100.00
64683;BME280;51107;47.652;19.016;2024-01-06T01:15:29;98979.56;;;3.30;100.00
64683;BME280;51107;47.652;19.016;2024-01-06T01:17:58;98980.37;;;3.30;100.00
64683;BME280;51107;47.652;19.016;2024-01-06T01:20:26;98980.37;;;3.30;100.00
64683;BME280;51107;47.652;19.016;2024-01-06T01:22:54;98974.41;;;3.30;100.00
64683;BME280;51107;47.652;19.016;2024-01-06T01:25:22;98984.97;;;3.27;100.00
64683;BME280;51107;47.652;19.016;2024-01-06T01:27:50;98970.00;;;3.20;100.00
64683;BME280;51107;47.652;19.016;2024-01-06T01:30:18;98963.34;;;3.18;100.00
64683;BME280;51107;47.652;19.016;2024-01-06T01:32:46;98964.72;;;3.22;100.00
64683;BME280;51107;47.652;19.016;2024-01-06T01:35:14;98961.09;;;3.25;100.00
64683;BME280;51107;47.652;19.016;2024-01-06T01:37:42;98951.38;;;3.28;100.00
64683;BME280;51107;47.652;19.016;2024-01-06T01:40:11;98955.75;;;3.37;100.00
64683;BME280;51107;47.652;19.016;2024-01-06T01:42:42;98961.47;;;3.41;100.00
64683;BME280;51107;47.652;19.016;2024-01-06T01:45:10;98963.38;;;3.39;100.00
64683;BME280;51107;47.652;19.016;2024-01-06T01:47:40;98957.84;;;3.44;100.00
64683;BME280;51107;47.652;19.016;2024-01-06T01:50:10;98959.69;;;3.53;100.00
64683;BME280;51107;47.652;19.016;2024-01-06T01:52:40;98954.41;;;3.54;100.00
64683;BME280;51107;47.652;19.016;2024-01-06T01:55:09;98955.53;;;3.62;100.00
64683;BME280;51107;47.652;19.016;2024-01-06T01:57:37;98950.69;;;3.68;100.00
64683;BME280;51107;47.652;19.016;2024-01-06T02:00:06;98943.63;;;3.70;100.00
64683;BME280;51107;47.652;19.016;2024-01-06T02:02:38;98958.16;;;3.71;100.00
64683;BME280;51107;47.652;19.016;2024-01-06T02:05:07;98952.81;;;3.63;100.00
64683;BME280;51107;47.652;19.016;2024-01-06T02:07:35;98945.47;;;3.59;100.00
64683;BME280;51107;47.652;19.016;2024-01-06T02:10:03;98936.75;;;3.71;100.00
64683;BME280;51107;47.652;19.016;2024-01-06T02:12:32;98928.63;;;3.76;100.00
64683;BME280;51107;47.652;19.016;2024-01-06T02:15:00;98928.50;;;3.77;100.00
64683;BME280;51107;47.652;19.016;2024-01-06T02:17:28;98925.06;;;3.67;100.00
64683;BME280;51107;47.652;19.016;2024-01-06T02:19:56;98942.00;;;3.48;100.00
64683;BME280;51107;47.652;19.016;2024-01-06T02:22:25;98931.53;;;3.61;100.00
64683;BME280;51107;47.652;19.016;2024-01-06T02:24:53;98925.41;;;3.62;100.00
64683;BME280;51107;47.652;19.016;2024-01-06T02:27:21;98935.63;;;3.64;100.00
64683;BME280;51107;47.652;19.016;2024-01-06T02:29:49;98928.31;;;3.69;100.00
64683;BME280;51107;47.652;19.016;2024-01-06T02:32:17;98921.16;;;3.72;100.00
64683;BME280;51107;47.652;19.016;2024-01-06T02:34:45;98907.50;;;3.82;100.00
64683;BME280;51107;47.652;19.016;2024-01-06T02:37:14;98919.44;;;3.83;100.00
64683;BME280;51107;47.652;19.016;2024-01-06T02:39:43;98922.44;;;3.88;100.00
64683;BME280;51107;47.652;19.016;2024-01-06T02:42:11;98918.00;;;3.90;100.00
64683;BME280;51107;47.652;19.016;2024-01-06T02:44:40;98906.34;;;3.96;100.00
64683;BME280;51107;47.652;19.016;2024-01-06T02:47:08;98910.44;;;3.98;100.00
64683;BME280;51107;47.652;19.016;2024-01-06T02:49:36;98906.34;;;3.96;100.00
64683;BME280;51107;47.652;19.016;2024-01-06T02:52:04;98905.38;;;3.97;100.00
64683;BME280;51107;47.652;19.016;2024-01-06T02:54:33;98902.72;;;3.98;100.00
64683;BME280;51107;47.652;19.016;2024-01-06T02:57:01;98900.12;;;3.98;100.00
64683;BME280;51107;47.652;19.016;2024-01-06T02:59:29;98896.34;;;4.02;100.00
64683;BME280;51107;47.652;19.016;2024-01-06T03:01:58;98888.84;;;3.99;100.00
64683;BME280;51107;47.652;19.016;2024-01-06T03:04:26;98894.44;;;4.04;100.00
64683;BME280;51107;47.652;19.016;2024-01-06T03:06:54;98887.66;;;4.03;100.00
64683;BME280;51107;47.652;19.016;2024-01-06T03:09:23;98887.41;;;4.06;100.00
64683;BME280;51107;47.652;19.016;2024-01-06T03:11:51;98878.72;;;4.07;100.00
64683;BME280;51107;47.652;19.016;2024-01-06T03:14:19;98887.13;;;4.10;100.00
64683;BME280;51107;47.652;19.016;2024-01-06T03:16:47;98882.66;;;4.12;100.00
64683;BME280;51107;47.652;19.016;2024-01-06T03:19:15;98887.94;;;4.10;100.00
64683;BME280;51107;47.652;19.016;2024-01-06T03:21:44;98886.88;;;4.13;100.00
64683;BME280;51107;47.652;19.016;2024-01-06T03:24:12;98882.28;;;4.16;100.00
64683;BME280;51107;47.652;19.016;2024-01-06T03:26:40;98867.63;;;4.17;100.00
64683;BME280;51107;47.652;19.016;2024-01-06T03:29:08;98868.41;;;4.17;100.00
64683;BME280;51107;47.652;19.016;2024-01-06T03:31:36;98867.63;;;4.17;100.00
64683;BME280;51107;47.652;19.016;2024-01-06T03:34:04;98876.84;;;4.19;100.00
64683;BME280;51107;47.652;19.016;2024-01-06T03:36:32;98874.28;;;4.19;100.00
64683;BME280;51107;47.652;19.016;2024-01-06T03:39:00;98869.78;;;4.21;100.00
64683;BME280;51107;47.652;19.016;2024-01-06T03:41:28;98875.66;;;4.23;100.00
64683;BME280;51107;47.652;19.016;2024-01-06T03:43:56;98878.78;;;4.27;100.00
64683;BME280;51107;47.652;19.016;2024-01-06T03:46:24;98870.78;;;4.30;100.00
64683;BME280;51107;47.652;19.016;2024-01-06T03:48:52;98871.44;;;4.32;100.00
64683;BME280;51107;47.652;19.016;2024-01-06T03:51:21;98867.94;;;4.33;100.00
64683;BME280;51107;47.652;19.016;2024-01-06T03:53:50;98870.22;;;4.36;100.00
64683;BME280;51107;47.652;19.016;2024-01-06T03:56:18;98863.63;;;4.44;100.00
64683;BME280;51107;47.652;19.016;2024-01-06T03:58:46;98867.81;;;4.45;100.00
64683;BME280;51107;47.652;19.016;2024-01-06T04:01:15;98866.59;;;4.49;100.00
64683;BME280;51107;47.652;19.016;2024-01-06T04:03:43;98870.66;;;4.51;100.00
64683;BME280;51107;47.652;19.016;2024-01-06T04:06:11;98868.09;;;4.51;100.00
64683;BME280;51107;47.652;19.016;2024-01-06T04:08:40;98861.06;;;4.53;100.00
64683;BME280;51107;47.652;19.016;2024-01-06T04:11:10;98867.81;;;4.54;100.00
64683;BME280;51107;47.652;19.016;2024-01-06T04:13:38;98861.06;;;4.53;100.00
64683;BME280;51107;47.652;19.016;2024-01-06T04:16:06;98876.66;;;4.52;100.00
64683;BME280;51107;47.652;19.016;2024-01-06T04:18:35;98877.31;;;4.54;100.00
64683;BME280;51107;47.652;19.016;2024-01-06T04:21:03;98874.63;;;4.55;100.00
64683;BME280;51107;47.652;19.016;2024-01-06T04:23:32;98894.81;;;4.50;100.00
64683;BME280;51107;47.652;19.016;2024-01-06T04:26:01;98882.75;;;4.51;100.00
64683;BME280;51107;47.652;19.016;2024-01-06T04:28:29;98893.59;;;4.54;100.00
64683;BME280;51107;47.652;19.016;2024-01-06T04:30:57;98888.22;;;4.57;100.00
64683;BME280;51107;47.652;19.016;2024-01-06T04:33:26;98895.09;;;4.57;100.00
64683;BME280;51107;47.652;19.016;2024-01-06T04:35:54;98888.44;;;4.54;100.00
64683;BME280;51107;47.652;19.016;2024-01-06T04:38:22;98880.34;;;4.59;100.00
64683;BME280;51107;47.652;19.016;2024-01-06T04:40:50;98880.59;;;4.56;100.00
64683;BME280;51107;47.652;19.016;2024-01-06T04:43:18;98876.38;;;4.55;100.00
64683;BME280;51107;47.652;19.016;2024-01-06T04:45:46;98885.06;;;4.54;100.00
64683;BME280;51107;47.652;19.016;2024-01-06T04:48:14;98887.50;;;4.55;100.00
64683;BME280;51107;47.652;19.016;2024-01-06T04:50:42;98903.66;;;4.48;100.00
64683;BME280;51107;47.652;19.016;2024-01-06T04:53:10;98908.81;;;4.48;100.00
64683;BME280;51107;47.652;19.016;2024-01-06T04:55:39;98901.47;;;4.53;100.00
64683;BME280;51107;47.652;19.016;2024-01-06T04:58:07;98914.25;;;4.64;100.00
64683;BME280;51107;47.652;19.016;2024-01-06T05:00:35;98901.63;;;4.61;100.00
64683;BME280;51107;47.652;19.016;2024-01-06T05:03:04;98902.84;;;4.57;100.00
64683;BME280;51107;47.652;19.016;2024-01-06T05:05:32;98882.50;;;4.54;100.00
64683;BME280;51107;47.652;19.016;2024-01-06T05:08:00;98893.88;;;4.51;100.00
64683;BME280;51107;47.652;19.016;2024-01-06T05:10:29;98878.41;;;4.51;100.00
64683;BME280;51107;47.652;19.016;2024-01-06T05:12:57;98892.81;;;4.54;100.00
64683;BME280;51107;47.652;19.016;2024-01-06T05:15:25;98881.56;;;4.65;100.00
64683;BME280;51107;47.652;19.016;2024-01-06T05:17:54;98877.34;;;4.73;100.00
64683;BME280;51107;47.652;19.016;2024-01-06T05:20:22;98879.91;;;4.64;100.00
64683;BME280;51107;47.652;19.016;2024-01-06T05:22:50;98871.66;;;4.60;100.00
64683;BME280;51107;47.652;19.016;2024-01-06T05:25:19;98879.63;;;4.57;100.00
64683;BME280;51107;47.652;19.016;2024-01-06T05:27:47;98883.03;;;4.57;100.00
64683;BME280;51107;47.652;19.016;2024-01-06T05:30:15;98867.44;;;4.59;100.00
64683;BME280;51107;47.652;19.016;2024-01-06T05:32:43;98863.22;;;4.58;100.00
64683;BME280;51107;47.652;19.016;2024-01-06T05:35:11;98865.53;;;4.61;100.00
64683;BME280;51107;47.652;19.016;2024-01-06T05:37:40;98871.66;;;4.60;100.00
64683;BME280;51107;47.652;19.016;2024-01-06T05:40:09;98872.31;;;4.62;100.00
64683;BME280;51107;47.652;19.016;2024-01-06T05:42:37;98870.53;;;4.63;100.00
64683;BME280;51107;47.652;19.016;2024-01-06T05:45:05;98864.56;;;4.62;100.00
64683;BME280;51107;47.652;19.016;2024-01-06T05:47:33;98870.53;;;4.63;100.00
64683;BME280;51107;47.652;19.016;2024-01-06T05:50:01;98882.63;;;4.62;100.00
64683;BME280;51107;47.652;19.016;2024-01-06T05:52:30;98893.75;;;4.63;100.00
64683;BME280;51107;47.652;19.016;2024-01-06T05:54:58;98896.87;;;4.56;100.00
64683;BME280;51107;47.652;19.016;2024-01-06T05:57:27;98889.81;;;4.58;100.00
64683;BME280;51107;47.652;19.016;2024-01-06T05:59:55;98893.38;;;4.57;100.00
64683;BME280;51107;47.652;19.016;2024-01-06T06:02:23;98899.19;;;4.59;100.00
64683;BME280;51107;47.652;19.016;2024-01-06T06:04:51;98903.41;;;4.61;100.00
64683;BME280;51107;47.652;19.016;2024-01-06T06:07:20;98906.00;;;4.61;100.00
64683;BME280;51107;47.652;19.016;2024-01-06T06:09:48;98910.22;;;4.62;100.00
64683;BME280;51107;47.652;19.016;2024-01-06T06:12:17;98910.06;;;4.63;100.00
64683;BME280;51107;47.652;19.016;2024-01-06T06:14:45;98901.25;;;4.66;100.00
64683;BME280;51107;47.652;19.016;2024-01-06T06:17:13;98902.06;;;4.66;100.00
64683;BME280;51107;47.652;19.016;2024-01-06T06:19:41;98901.25;;;4.66;100.00
64683;BME280;51107;47.652;19.016;2024-01-06T06:22:09;98897.16;;;4.63;100.00
64683;BME280;51107;47.652;19.016;2024-01-06T06:24:37;98910.75;;;4.65;100.00
64683;BME280;51107;47.652;19.016;2024-01-06T06:27:06;98900.41;;;4.65;100.00
64683;BME280;51107;47.652;19.016;2024-01-06T06:29:34;98904.78;;;4.65;100.00
64683;BME280;51107;47.652;19.016;2024-01-06T06:32:02;98902.84;;;4.67;100.00
64683;BME280;51107;47.652;19.016;2024-01-06T06:34:30;98909.53;;;4.69;100.00
64683;BME280;51107;47.652;19.016;2024-01-06T06:36:59;98904.50;;;4.68;100.00
64683;BME280;51107;47.652;19.016;2024-01-06T06:39:27;98894.97;;;4.68;100.00
64683;BME280;51107;47.652;19.016;2024-01-06T06:41:55;98895.81;;;4.69;100.00
64683;BME280;51107;47.652;19.016;2024-01-06T06:44:23;98903.69;;;4.67;100.00
64683;BME280;51107;47.652;19.016;2024-01-06T06:46:51;98897.69;;;4.67;100.00
64683;BME280;51107;47.652;19.016;2024-01-06T06:49:20;98896.91;;;4.66;100.00
64683;BME280;51107;47.652;19.016;2024-01-06T06:51:48;98895.41;;;4.64;100.00
64683;BME280;51107;47.652;19.016;2024-01-06T06:54:17;98909.66;;;4.58;100.00
64683;BME280;51107;47.652;19.016;2024-01-06T06:56:46;98900.03;;;4.60;100.00
64683;BME280;51107;47.652;19.016;2024-01-06T06:59:14;98910.44;;;4.49;100.00
64683;BME280;51107;47.652;19.016;2024-01-06T07:01:42;98905.03;;;4.52;100.00
64683;BME280;51107;47.652;19.016;2024-01-06T07:04:10;98903.94;;;4.54;100.00
64683;BME280;51107;47.652;19.016;2024-01-06T07:06:38;98908.97;;;4.56;100.00
64683;BME280;51107;47.652;19.016;2024-01-06T07:09:07;98904.63;;;4.56;100.00
64683;BME280;51107;47.652;19.016;2024-01-06T07:11:35;98914.81;;;4.58;100.00
64683;BME280;51107;47.652;19.016;2024-01-06T07:14:03;98917.25;;;4.59;100.00
64683;BME280;51107;47.652;19.016;2024-01-06T07:16:32;98908.72;;;4.59;100.00
64683;BME280;51107;47.652;19.016;2024-01-06T07:19:00;98910.22;;;4.62;100.00
64683;BME280;51107;47.652;19.016;2024-01-06T07:21:28;98908.28;;;4.64;100.00
64683;BME280;51107;47.652;19.016;2024-01-06T07:23:56;98911.00;;;4.62;100.00
64683;BME280;51107;47.652;19.016;2024-01-06T07:26:25;98903.13;;;4.64;100.00
64683;BME280;51107;47.652;19.016;2024-01-06T07:28:53;98909.00;;;4.66;100.00
64683;BME280;51107;47.652;19.016;2024-01-06T07:31:21;98898.78;;;4.64;100.00
64683;BME280;51107;47.652;19.016;2024-01-06T07:33:49;98895.81;;;4.69;100.00
64683;BME280;51107;47.652;19.016;2024-01-06T07:36:17;98903.41;;;4.61;100.00
64683;BME280;51107;47.652;19.016;2024-01-06T07:38:45;98901.25;;;4.66;100.00
64683;BME280;51107;47.652;19.016;2024-01-06T07:41:14;98905.84;;;4.62;100.00
64683;BME280;51107;47.652;19.016;2024-01-06T07:43:42;98907.34;;;4.65;100.00
64683;BME280;51107;47.652;19.016;2024-01-06T07:46:10;98907.22;;;4.66;100.00
64683;BME280;51107;47.652;19.016;2024-01-06T07:48:38;98903.94;;;4.64;100.00
64683;BME280;51107;47.652;19.016;2024-01-06T07:51:07;98893.38;;;4.57;100.00
64683;BME280;51107;47.652;19.016;2024-01-06T07:53:35;98893.91;;;4.61;100.00
64683;BME280;51107;47.652;19.016;2024-01-06T07:56:03;98897.03;;;4.65;100.00
64683;BME280;51107;47.652;19.016;2024-01-06T07:58:31;98916.16;;;4.62;100.00
64683;BME280;51107;47.652;19.016;2024-01-06T08:01:00;98908.44;;;4.62;100.00
64683;BME280;51107;47.652;19.016;2024-01-06T08:03:29;98903.28;;;4.62;100.00
64683;BME280;51107;47.652;19.016;2024-01-06T08:05:58;98906.94;;;4.69;100.00
64683;BME280;51107;47.652;19.016;2024-01-06T08:08:26;98905.19;;;4.70;100.00
64683;BME280;51107;47.652;19.016;2024-01-06T08:10:55;98898.53;;;4.67;100.00
64683;BME280;51107;47.652;19.016;2024-01-06T08:13:23;98896.91;;;4.66;100.00
64683;BME280;51107;47.652;19.016;2024-01-06T08:15:51;98905.31;;;4.68;100.00
64683;BME280;51107;47.652;19.016;2024-01-06T08:18:19;98900.16;;;4.68;100.00
64683;BME280;51107;47.652;19.016;2024-01-06T08:20:49;98891.75;;;4.66;100.00
64683;BME280;51107;47.652;19.016;2024-01-06T08:23:17;98893.09;;;4.70;100.00
64683;BME280;51107;47.652;19.016;2024-01-06T08:25:48;98900.84;;;4.70;100.00
64683;BME280;51107;47.652;19.016;2024-01-06T08:28:16;98903.69;;;4.67;100.00
64683;BME280;51107;47.652;19.016;2024-01-06T08:30:46;98899.19;;;4.69;100.00
64683;BME280;51107;47.652;19.016;2024-01-06T08:33:15;98898.94;;;4.72;100.00
64683;BME280;51107;47.652;19.016;2024-01-06T08:35:43;98907.34;;;4.74;100.00
64683;BME280;51107;47.652;19.016;2024-01-06T08:38:11;98904.63;;;4.76;100.00
64683;BME280;51107;47.652;19.016;2024-01-06T08:40:40;98907.34;;;4.74;100.00
64683;BME280;51107;47.652;19.016;2024-01-06T08:43:08;98913.19;;;4.76;100.00
64683;BME280;51107;47.652;19.016;2024-01-06T08:45:36;98906.94;;;4.79;100.00
64683;BME280;51107;47.652;19.016;2024-01-06T08:48:04;98906.81;;;4.81;100.00
64683;BME280;51107;47.652;19.016;2024-01-06T08:50:32;98917.13;;;4.81;100.00
64683;BME280;51107;47.652;19.016;2024-01-06T08:53:01;98913.59;;;4.82;100.00
64683;BME280;51107;47.652;19.016;2024-01-06T08:55:29;98903.97;;;4.84;100.00
64683;BME280;51107;47.652;19.016;2024-01-06T08:57:57;98903.84;;;4.85;100.00
64683;BME280;51107;47.652;19.016;2024-01-06T09:00:25;98906.28;;;4.87;100.00
64683;BME280;51107;47.652;19.016;2024-01-06T09:02:53;98915.38;;;4.91;100.00
64683;BME280;51107;47.652;19.016;2024-01-06T09:05:21;98904.25;;;4.90;100.00
64683;BME280;51107;47.652;19.016;2024-01-06T09:07:49;98905.19;;;4.89;100.00
64683;BME280;51107;47.652;19.016;2024-01-06T09:10:22;98912.38;;;4.86;100.00
64683;BME280;51107;47.652;19.016;2024-01-06T09:12:50;98905.19;;;4.89;100.00
64683;BME280;51107;47.652;19.016;2024-01-06T09:15:18;98900.03;;;4.89;100.00
64683;BME280;51107;47.652;19.016;2024-01-06T09:17:47;98905.47;;;4.96;100.00
64683;BME280;51107;47.652;19.016;2024-01-06T09:20:16;98897.72;;;4.96;100.00
64683;BME280;51107;47.652;19.016;2024-01-06T09:22:45;98896.91;;;4.96;100.00
64683;BME280;51107;47.652;19.016;2024-01-06T09:25:14;98904.50;;;4.97;100.00
64683;BME280;51107;47.652;19.016;2024-01-06T09:27:42;98892.56;;;4.96;100.00
64683;BME280;51107;47.652;19.016;2024-01-06T09:30:10;98894.31;;;4.96;100.00
64683;BME280;51107;47.652;19.016;2024-01-06T09:32:39;98898.53;;;4.97;100.00
64683;BME280;51107;47.652;19.016;2024-01-06T09:35:07;98897.59;;;4.98;100.00
64683;BME280;51107;47.652;19.016;2024-01-06T09:37:35;98898.69;;;4.95;100.00
64683;BME280;51107;47.652;19.016;2024-01-06T09:40:04;98901.13;;;4.97;100.00
64683;BME280;51107;47.652;19.016;2024-01-06T09:42:32;98894.31;;;4.96;100.00
64683;BME280;51107;47.652;19.016;2024-01-06T09:45:01;98893.53;;;4.95;100.00
64683;BME280;51107;47.652;19.016;2024-01-06T09:47:33;98893.38;;;4.97;100.00
64683;BME280;51107;47.652;19.016;2024-01-06T09:50:03;98894.19;;;4.97;100.00
64683;BME280;51107;47.652;19.016;2024-01-06T09:52:39;98891.22;;;5.02;100.00
64683;BME280;51107;47.652;19.016;2024-01-06T09:55:10;98874.88;;;5.01;100.00
64683;BME280;51107;47.652;19.016;2024-01-06T09:57:39;98873.94;;;5.02;100.00
64683;BME280;51107;47.652;19.016;2024-01-06T10:00:07;98872.19;;;5.03;100.00
64683;BME280;51107;47.652;19.016;2024-01-06T10:02:39;98865.91;;;5.05;100.00
64683;BME280;51107;47.652;19.016;2024-01-06T10:05:08;98876.12;;;5.07;100.00
64683;BME280;51107;47.652;19.016;2024-01-06T10:07:37;98864.97;;;5.06;100.00
64683;BME280;51107;47.652;19.016;2024-01-06T10:10:07;98879.53;;;5.07;100.00
64683;BME280;51107;47.652;19.016;2024-01-06T10:12:37;98867.28;;;5.09;100.00
64683;BME280;51107;47.652;19.016;2024-01-06T10:15:08;98866.31;;;5.10;100.00
64683;BME280;51107;47.652;19.016;2024-01-06T10:17:37;98865.37;;;5.12;100.00
64683;BME280;51107;47.652;19.016;2024-01-06T10:20:11;98870.41;;;5.13;100.00
64683;BME280;51107;47.652;19.016;2024-01-06T10:22:42;98878.16;;;5.13;100.00
64683;BME280;51107;47.652;19.016;2024-01-06T10:25:11;98876.12;;;5.17;100.00
64683;BME280;51107;47.652;19.016;2024-01-06T10:27:41;98877.72;;;5.18;100.00
64683;BME280;51107;47.652;19.016;2024-01-06T10:30:10;98880.31;;;5.18;100.00
64683;BME280;51107;47.652;19.016;2024-01-06T10:32:39;98877.88;;;5.16;100.00
64683;BME280;51107;47.652;19.016;2024-01-06T10:35:07;98882.22;;;5.16;100.00
64683;BME280;51107;47.652;19.016;2024-01-06T10:37:36;98881.94;;;5.19;100.00
64683;BME280;51107;47.652;19.016;2024-01-06T10:40:12;98888.06;;;5.18;100.00
64683;BME280;51107;47.652;19.016;2024-01-06T10:42:41;98892.28;;;5.19;100.00
64683;BME280;51107;47.652;19.016;2024-01-06T10:45:12;98889.56;;;5.20;100.00
64683;BME280;51107;47.652;19.016;2024-01-06T10:47:42;98884.25;;;5.22;100.00
64683;BME280;51107;47.652;19.016;2024-01-06T10:50:11;98881.66;;;5.22;100.00
64683;BME280;51107;47.652;19.016;2024-01-06T10:52:43;98862.66;;;5.23;100.00
64683;BME280;51107;47.652;19.016;2024-01-06T10:55:11;98857.19;;;5.26;100.00
64683;BME280;51107;47.652;19.016;2024-01-06T10:57:43;98851.78;;;5.29;100.00
64683;BME280;51107;47.652;19.016;2024-01-06T11:00:12;98840.47;;;5.30;100.00
64683;BME280;51107;47.652;19.016;2024-01-06T11:02:40;98852.56;;;5.30;100.00
64683;BME280;51107;47.652;19.016;2024-01-06T11:05:10;98844.03;;;5.29;100.00
64683;BME280;51107;47.652;19.016;2024-01-06T11:07:40;98823.22;;;5.31;100.00
64683;BME280;51107;47.652;19.016;2024-01-06T11:10:15;98822.53;;;5.28;100.00
64683;BME280;51107;47.652;19.016;2024-01-06T11:12:44;98825.81;;;5.31;100.00
64683;BME280;51107;47.652;19.016;2024-01-06T11:15:47;98818.47;;;5.26;100.00
64683;BME280;51107;47.652;19.016;2024-01-06T11:18:41;98815.06;;;5.25;100.00
64683;BME280;51107;47.652;19.016;2024-01-06T11:23:42;98804.34;;;5.20;100.00
64683;BME280;51107;47.652;19.016;2024-01-06T11:26:10;98801.75;;;5.20;100.00
64683;BME280;51107;47.652;19.016;2024-01-06T11:28:48;98794.84;;;5.21;100.00
64683;BME280;51107;47.652;19.016;2024-01-06T11:31:19;98787.91;;;5.21;100.00
64683;BME280;51107;47.652;19.016;2024-01-06T11:33:50;98785.31;;;5.21;100.00
64683;BME280;51107;47.652;19.016;2024-01-06T11:36:20;98779.22;;;5.22;100.00
64683;BME280;51107;47.652;19.016;2024-01-06T11:38:48;98779.88;;;5.24;100.00
64683;BME280;51107;47.652;19.016;2024-01-06T11:41:48;98774.56;;;5.26;100.00
64683;BME280;51107;47.652;19.016;2024-01-06T11:44:23;98762.34;;;5.28;100.00
64683;BME280;51107;47.652;19.016;2024-01-06T11:46:51;98776.75;;;5.31;100.00
64683;BME280;51107;47.652;19.016;2024-01-06T11:49:26;98752.66;;;5.30;100.00
64683;BME280;51107;47.652;19.016;2024-01-06T11:51:58;98755.00;;;5.33;100.00
64683;BME280;51107;47.652;19.016;2024-01-06T11:54:27;98747.91;;;5.35;100.00
64683;BME280;51107;47.652;19.016;2024-01-06T11:56:55;98736.75;;;5.35;100.00
64683;BME280;51107;47.652;19.016;2024-01-06T11:59:25;98740.84;;;5.37;100.00
64683;BME280;51107;47.652;19.016;2024-01-06T12:01:53;98737.97;;;5.40;100.00
64683;BME280;51107;47.652;19.016;2024-01-06T12:04:22;98734.53;;;5.40;100.00
64683;BME280;51107;47.652;19.016;2024-01-06T12:06:53;98731.84;;;5.41;100.00
64683;BME280;51107;47.652;19.016;2024-01-06T12:09:23;98722.16;;;5.43;100.00
64683;BME280;51107;47.652;19.016;2024-01-06T12:12:03;98716.84;;;5.45;100.00
64683;BME280;51107;47.652;19.016;2024-01-06T12:14:33;98702.84;;;5.48;100.00
64683;BME280;51107;47.652;19.016;2024-01-06T12:17:01;98719.97;;;5.49;100.00
64683;BME280;51107;47.652;19.016;2024-01-06T12:19:31;98723.22;;;5.51;100.00
64683;BME280;51107;47.652;19.016;2024-01-06T12:22:06;98712.75;;;5.52;100.00
64683;BME280;51107;47.652;19.016;2024-01-06T12:24:34;98708.41;;;5.53;100.00
64683;BME280;51107;47.652;19.016;2024-01-06T12:27:02;98706.63;;;5.53;100.00
64683;BME280;51107;47.652;19.016;2024-01-06T12:29:30;98711.94;;;5.52;100.00
64683;BME280;51107;47.652;19.016;2024-01-06T12:32:00;98706.13;;;5.50;100.00
64683;BME280;51107;47.652;19.016;2024-01-06T12:34:28;98708.41;;;5.53;100.00
64683;BME280;51107;47.652;19.016;2024-01-06T12:36:56;98714.66;;;5.50;100.00
64683;BME280;51107;47.652;19.016;2024-01-06T12:39:29;98728.03;;;5.46;100.00
64683;BME280;51107;47.652;19.016;2024-01-06T12:41:58;98715.22;;;5.44;100.00
64683;BME280;51107;47.652;19.016;2024-01-06T12:44:28;98709.94;;;5.46;100.00
64683;BME280;51107;47.652;19.016;2024-01-06T12:46:56;98712.53;;;5.46;100.00
64683;BME280;51107;47.652;19.016;2024-01-06T12:49:24;98710.88;;;5.44;100.00
64683;BME280;51107;47.652;19.016;2024-01-06T12:51:52;98715.22;;;5.44;100.00
64683;BME280;51107;47.652;19.016;2024-01-06T12:54:21;98712.53;;;5.46;100.00
64683;BME280;51107;47.652;19.016;2024-01-06T12:56:49;98728.03;;;5.46;100.00
64683;BME280;51107;47.652;19.016;2024-01-06T12:59:17;98728.03;;;5.46;100.00
64683;BME280;51107;47.652;19.016;2024-01-06T13:01:46;98726.25;;;5.46;100.00